Time;durP1;ratioP1;P1;durP2;ratioP2;P2;SDS_P1;SDS_P2;PMS_P1;PMS_P2;Temp;Humidity;BMP_temperature;BMP_pressure;BME280_temperature;BME280_humidity;BME280_pressure;Samples;Min_cycle;Max_cycle;Signal;HPM_P1;HPM_P2
2022/11/20 00:01:10;;;;;;;29.33;15.85;;;0.20;99.90;;;;;;5093177;28;20050;-45
2022/11/20 00:03:35;;;;;;;32.42;16.23;;;0.20;99.90;;;;;;5093575;28;20048;-45
2022/11/20 00:06:06;;;;;;;27.27;15.95;;;0.20;99.90;;;;;;5093558;28;20500;-45
2022/11/20 00:08:32;;;;;;;24.90;15.35;;;0.20;99.90;;;;;;5089298;28;20598;-45
2022/11/20 00:11:01;;;;;;;25.60;13.90;;;0.20;99.90;;;;;;5083909;28;20094;-45
2022/11/20 00:13:27;;;;;;;27.85;15.10;;;0.20;99.90;;;;;;5100459;28;20036;-44
2022/11/20 00:15:58;;;;;;;26.65;15.38;;;0.20;99.90;;;;;;5091072;28;20027;-45
2022/11/20 00:18:24;;;;;;;30.23;16.52;;;0.20;99.90;;;;;;5097874;28;20016;-45
2022/11/20 00:20:49;;;;;;;28.20;15.80;;;0.20;99.90;;;;;;5094799;28;20364;-45
2022/11/20 00:23:14;;;;;;;28.52;15.57;;;0.20;99.90;;;;;;5097462;28;20133;-45
2022/11/20 00:25:40;;;;;;;26.73;15.13;;;0.20;99.90;;;;;;5108442;28;20072;-45
2022/11/20 00:28:05;;;;;;;27.33;16.05;;;0.20;99.90;;;;;;5099952;28;20032;-45
2022/11/20 00:30:31;;;;;;;34.50;16.05;;;0.20;99.90;;;;;;5106924;28;20024;-45
2022/11/20 00:32:57;;;;;;;29.70;15.93;;;0.20;99.90;;;;;;5113325;28;20027;-45
2022/11/20 00:35:23;;;;;;;27.70;15.55;;;0.20;99.90;;;;;;5113308;28;20024;-45
2022/11/20 00:37:48;;;;;;;27.55;15.63;;;0.20;99.90;;;;;;5113220;28;20061;-47
2022/11/20 00:40:14;;;;;;;28.33;15.88;;;0.20;99.90;;;;;;5094388;28;20011;-44
2022/11/20 00:42:39;;;;;;;26.00;15.68;;;0.20;99.90;;;;;;5112780;28;20360;-45
2022/11/20 00:45:06;;;;;;;28.30;14.88;;;0.10;99.90;;;;;;5113039;28;20027;-45
2022/11/20 00:47:32;;;;;;;35.75;18.02;;;0.20;99.90;;;;;;5113208;28;20027;-45
2022/11/20 00:49:57;;;;;;;28.65;16.27;;;0.20;99.90;;;;;;5112170;28;20062;-44
2022/11/20 00:52:23;;;;;;;26.10;15.30;;;0.10;99.90;;;;;;5112454;28;20024;-44
2022/11/20 00:54:48;;;;;;;30.83;15.02;;;0.20;99.90;;;;;;5111387;28;20103;-43
2022/11/20 00:57:14;;;;;;;28.65;16.27;;;0.20;99.90;;;;;;5106964;28;20028;-44
2022/11/20 00:59:39;;;;;;;25.63;14.63;;;0.30;99.90;;;;;;5098773;28;20102;-43
2022/11/20 01:02:05;;;;;;;33.05;16.40;;;0.30;99.90;;;;;;5112446;28;20034;-43
2022/11/20 01:04:30;;;;;;;28.40;15.45;;;0.20;99.90;;;;;;5112459;28;20050;-44
2022/11/20 01:06:55;;;;;;;28.08;15.68;;;0.20;99.90;;;;;;5112507;28;20031;-43
2022/11/20 01:09:21;;;;;;;27.30;16.02;;;0.20;99.90;;;;;;5111740;28;20027;-43
2022/11/20 01:11:46;;;;;;;28.40;15.68;;;0.20;99.90;;;;;;5112140;28;20036;-44
2022/11/20 01:14:16;;;;;;;28.17;15.30;;;0.10;99.90;;;;;;5111946;28;20062;-44
2022/11/20 01:16:44;;;;;;;28.40;15.32;;;0.20;99.90;;;;;;5102031;28;20035;-44
2022/11/20 01:19:22;;;;;;;25.02;14.43;;;0.20;99.90;;;;;;5094142;28;20414;-39
2022/11/20 01:21:50;;;;;;;25.60;14.43;;;0.20;99.90;;;;;;5112258;28;20015;-38
2022/11/20 01:24:17;;;;;;;27.77;14.77;;;0.20;99.90;;;;;;5098157;28;20028;-44
2022/11/20 01:26:45;;;;;;;29.33;14.85;;;0.20;99.90;;;;;;5107496;28;20119;-44
2022/11/20 01:29:19;;;;;;;34.65;14.70;;;0.20;99.90;;;;;;5111273;28;20026;-44
2022/11/20 01:31:45;;;;;;;28.75;13.75;;;0.20;99.90;;;;;;5111683;28;20039;-44
2022/11/20 01:34:13;;;;;;;26.65;14.27;;;0.20;99.90;;;;;;5111752;28;20051;-45
2022/11/20 01:36:41;;;;;;;23.67;14.23;;;0.10;99.90;;;;;;5111787;28;20019;-43
2022/11/20 01:39:11;;;;;;;23.58;13.18;;;0.20;99.90;;;;;;5105782;28;20024;-45
2022/11/20 01:44:43;;;;;;;26.17;13.82;;;0.20;99.90;;;;;;5111868;28;20076;-40
2022/11/20 01:47:11;;;;;;;23.67;13.88;;;0.20;99.90;;;;;;5110891;28;20030;-39
2022/11/20 01:49:45;;;;;;;24.33;14.40;;;0.20;99.90;;;;;;5108734;28;20035;-39
2022/11/20 01:52:37;;;;;;;28.60;14.05;;;0.20;99.90;;;;;;5088496;28;20029;-39
2022/11/20 01:55:16;;;;;;;26.85;13.82;;;0.20;99.90;;;;;;5088928;28;20359;-39
2022/11/20 01:57:44;;;;;;;26.70;14.38;;;0.30;99.90;;;;;;5094120;28;20044;-39
2022/11/20 02:00:13;;;;;;;24.67;13.48;;;0.20;99.90;;;;;;5087647;28;20019;-39
2022/11/20 02:02:42;;;;;;;24.85;14.90;;;0.20;99.90;;;;;;5089941;28;20446;-39
2022/11/20 02:05:27;;;;;;;22.60;13.18;;;0.20;99.90;;;;;;5088051;28;20023;-39
2022/11/20 02:07:54;;;;;;;24.30;13.57;;;0.20;99.90;;;;;;5088122;28;20089;-41
2022/11/20 02:10:20;;;;;;;28.00;14.68;;;0.20;99.90;;;;;;5089758;28;20363;-40
2022/11/20 02:15:31;;;;;;;24.38;13.50;;;0.30;99.90;;;;;;5090076;28;20057;-40
2022/11/20 02:17:57;;;;;;;29.92;15.25;;;0.30;99.90;;;;;;5086938;28;20375;-40
2022/11/20 02:20:23;;;;;;;28.05;14.32;;;0.30;99.90;;;;;;5086820;28;20031;-40
2022/11/20 02:23:00;;;;;;;27.48;15.20;;;0.30;99.90;;;;;;5082180;28;20050;-39
2022/11/20 02:25:27;;;;;;;25.73;14.23;;;0.20;99.90;;;;;;5083026;28;20026;-39
2022/11/20 02:27:52;;;;;;;26.23;12.77;;;0.20;99.90;;;;;;5077929;28;20043;-40
2022/11/20 02:30:18;;;;;;;21.48;12.35;;;0.20;99.90;;;;;;5088606;28;20433;-39
2022/11/20 02:32:44;;;;;;;21.95;13.20;;;0.20;99.90;;;;;;5093216;28;20020;-41
2022/11/20 02:35:18;;;;;;;23.17;13.13;;;0.20;99.90;;;;;;5090108;28;20028;-38
2022/11/20 02:37:46;;;;;;;25.52;15.32;;;0.20;99.90;;;;;;5089842;28;20035;-37
2022/11/20 02:40:12;;;;;;;22.13;12.60;;;0.10;99.90;;;;;;5089673;28;20017;-39
2022/11/20 02:42:38;;;;;;;23.05;12.95;;;0.10;99.90;;;;;;5089879;28;20111;-39
2022/11/20 02:45:04;;;;;;;21.42;12.18;;;0.10;99.90;;;;;;5090057;28;20077;-39
2022/11/20 02:47:31;;;;;;;21.83;12.43;;;0.10;99.90;;;;;;5089831;28;20648;-40
2022/11/20 02:49:57;;;;;;;21.13;12.60;;;0.10;99.90;;;;;;5089477;28;20016;-39
2022/11/20 02:52:23;;;;;;;23.05;12.50;;;0.10;99.90;;;;;;5089689;28;20050;-38
2022/11/20 02:54:49;;;;;;;24.27;12.77;;;0.10;99.90;;;;;;5089851;28;20699;-39
2022/11/20 02:57:14;;;;;;;21.48;12.45;;;0.10;99.90;;;;;;5089762;28;20027;-38
2022/11/20 02:59:40;;;;;;;21.15;12.07;;;0.10;99.90;;;;;;5091987;28;20080;-39
2022/11/20 03:02:05;;;;;;;21.42;12.23;;;0.00;99.90;;;;;;5101220;28;20073;-39
2022/11/20 03:04:31;;;;;;;22.67;12.40;;;0.10;99.90;;;;;;5110450;28;20015;-40
2022/11/20 03:06:57;;;;;;;22.98;12.13;;;0.10;99.90;;;;;;5109962;28;20038;-40
2022/11/20 03:09:22;;;;;;;22.50;13.57;;;0.00;99.90;;;;;;5109814;28;20072;-40
2022/11/20 03:11:48;;;;;;;29.63;12.93;;;0.00;99.90;;;;;;5093574;28;20016;-38
2022/11/20 03:14:14;;;;;;;22.10;12.50;;;0.00;99.90;;;;;;5104986;28;20409;-39
2022/11/20 03:16:40;;;;;;;19.92;11.15;;;0.00;99.90;;;;;;5105372;28;20024;-40
2022/11/20 03:19:05;;;;;;;21.65;12.60;;;0.00;99.90;;;;;;5102609;28;20525;-40
2022/11/20 03:21:33;;;;;;;23.48;12.38;;;0.00;99.90;;;;;;5114061;28;20020;-38
2022/11/20 03:23:59;;;;;;;21.90;13.38;;;0.00;99.90;;;;;;5114127;28;20465;-39
2022/11/20 03:26:26;;;;;;;24.02;13.15;;;0.00;99.90;;;;;;5114223;28;20031;-39
2022/11/20 03:28:57;;;;;;;22.95;13.10;;;0.00;99.90;;;;;;5100841;28;20526;-40
2022/11/20 03:31:25;;;;;;;20.20;11.27;;;0.00;99.90;;;;;;5105107;28;20031;-39
2022/11/20 03:33:51;;;;;;;20.08;11.57;;;0.00;99.90;;;;;;5114220;28;20016;-39
2022/11/20 03:36:19;;;;;;;21.80;11.48;;;-0.10;99.90;;;;;;5114124;28;20020;-39
2022/11/20 03:38:45;;;;;;;23.98;12.10;;;-0.10;99.90;;;;;;5114021;28;20734;-40
2022/11/20 03:41:12;;;;;;;17.63;11.25;;;-0.10;99.90;;;;;;5113818;28;20016;-39
2022/11/20 03:43:39;;;;;;;19.85;11.35;;;-0.10;99.90;;;;;;5112342;28;20103;-39
2022/11/20 03:46:05;;;;;;;19.40;11.23;;;-0.10;99.90;;;;;;5114102;28;20019;-39
2022/11/20 03:48:31;;;;;;;18.67;11.27;;;-0.10;99.90;;;;;;5110013;28;20102;-40
2022/11/20 03:51:07;;;;;;;20.40;11.05;;;-0.10;99.90;;;;;;5105163;28;20019;-39
2022/11/20 03:53:33;;;;;;;22.70;11.90;;;-0.10;99.90;;;;;;5112442;28;20053;-39
2022/11/20 03:55:58;;;;;;;20.73;11.80;;;0.00;99.90;;;;;;5113246;28;20020;-39
2022/11/20 03:58:24;;;;;;;18.85;11.43;;;0.00;99.90;;;;;;5113286;28;20024;-39
2022/11/20 04:00:50;;;;;;;21.90;11.60;;;0.00;99.90;;;;;;5109291;28;20076;-39
2022/11/20 04:03:15;;;;;;;17.92;11.07;;;0.00;99.90;;;;;;5104633;28;20015;-39
2022/11/20 04:05:44;;;;;;;20.73;11.60;;;0.00;99.90;;;;;;5113357;28;20055;-39
2022/11/20 04:08:10;;;;;;;18.13;10.43;;;0.10;99.90;;;;;;5113379;28;20076;-39
2022/11/20 04:10:35;;;;;;;20.73;11.90;;;0.10;99.90;;;;;;5112857;28;20028;-39
2022/11/20 04:13:01;;;;;;;18.17;10.68;;;0.10;99.90;;;;;;5110689;28;20038;-39
2022/11/20 04:15:27;;;;;;;19.55;11.43;;;0.10;99.90;;;;;;5098232;28;20035;-38
2022/11/20 04:17:54;;;;;;;18.30;10.75;;;0.10;99.90;;;;;;5092078;28;20085;-38
2022/11/20 04:20:19;;;;;;;18.35;10.05;;;0.20;99.90;;;;;;5089031;28;20012;-38
2022/11/20 04:22:45;;;;;;;20.50;11.43;;;0.10;99.90;;;;;;5104096;28;20035;-38
2022/11/20 04:25:10;;;;;;;21.38;10.85;;;0.20;99.90;;;;;;5107249;28;20125;-38
2022/11/20 04:27:36;;;;;;;17.73;11.02;;;0.10;99.90;;;;;;5095523;28;20383;-38
2022/11/20 04:30:01;;;;;;;17.63;11.20;;;0.20;99.90;;;;;;5111122;28;20027;-38
2022/11/20 04:32:27;;;;;;;19.38;10.90;;;0.20;99.90;;;;;;5113381;28;20028;-38
2022/11/20 04:34:52;;;;;;;21.63;11.73;;;0.20;99.90;;;;;;5109568;28;20031;-39
2022/11/20 04:37:18;;;;;;;18.90;11.23;;;0.20;99.90;;;;;;5104215;28;20027;-38
2022/11/20 04:39:43;;;;;;;18.55;10.25;;;0.20;99.90;;;;;;5112431;28;20059;-39
2022/11/20 04:42:28;;;;;;;20.63;10.90;;;0.10;99.90;;;;;;5112876;28;20340;-39
2022/11/20 04:44:54;;;;;;;20.05;11.23;;;0.20;99.90;;;;;;5112596;28;20023;-39
2022/11/20 04:47:20;;;;;;;19.73;10.77;;;0.20;99.90;;;;;;5112994;28;20023;-39
2022/11/20 04:49:45;;;;;;;21.48;11.55;;;0.20;99.90;;;;;;5112366;28;20023;-39
2022/11/20 04:52:11;;;;;;;20.25;11.38;;;0.20;99.90;;;;;;5111589;28;20033;-39
2022/11/20 04:54:37;;;;;;;22.77;11.43;;;0.20;99.90;;;;;;5112552;28;20028;-39
2022/11/20 04:57:02;;;;;;;18.65;10.85;;;0.30;99.90;;;;;;5112463;28;20035;-39
2022/11/20 04:59:28;;;;;;;17.30;9.60;;;0.30;99.90;;;;;;5111692;28;20680;-39
2022/11/20 05:01:53;;;;;;;20.40;10.48;;;0.30;99.90;;;;;;5107620;28;20058;-39
2022/11/20 05:04:18;;;;;;;21.95;11.60;;;0.20;99.90;;;;;;5104276;28;20479;-39
2022/11/20 05:06:45;;;;;;;20.15;11.73;;;0.20;99.90;;;;;;5112234;28;20036;-39
2022/11/20 05:09:11;;;;;;;21.98;12.65;;;0.30;99.90;;;;;;5112032;28;20023;-39
2022/11/20 05:11:36;;;;;;;19.02;11.02;;;0.30;99.90;;;;;;5112374;28;20081;-39
2022/11/20 05:14:02;;;;;;;21.48;12.30;;;0.30;99.90;;;;;;5111917;28;20477;-39
2022/11/20 05:16:27;;;;;;;21.42;11.63;;;0.30;99.90;;;;;;5112170;28;20107;-39
2022/11/20 05:18:54;;;;;;;18.77;11.38;;;0.30;99.90;;;;;;5098182;28;20551;-39
2022/11/20 05:21:20;;;;;;;21.70;10.90;;;0.20;99.90;;;;;;5111817;28;20032;-39
2022/11/20 05:23:46;;;;;;;20.95;11.90;;;0.20;99.90;;;;;;5111846;28;20032;-39
2022/11/20 05:26:21;;;;;;;19.90;11.95;;;0.20;99.90;;;;;;5111909;28;20106;-39
2022/11/20 05:28:47;;;;;;;24.67;12.52;;;0.10;99.90;;;;;;5111787;28;20066;-39
2022/11/20 05:31:21;;;;;;;21.17;10.98;;;0.10;99.90;;;;;;5104647;28;20078;-39
2022/11/20 05:33:46;;;;;;;17.33;10.05;;;0.10;99.90;;;;;;5085994;28;20020;-39
2022/11/20 05:36:14;;;;;;;20.15;12.05;;;0.10;99.90;;;;;;5109456;28;20103;-39
2022/11/20 05:38:40;;;;;;;21.92;11.98;;;0.10;99.90;;;;;;5109384;28;20106;-39
2022/11/20 05:41:11;;;;;;;26.25;13.52;;;0.00;99.90;;;;;;5105022;27;20019;-39
2022/11/20 05:43:39;;;;;;;24.35;12.55;;;0.00;99.90;;;;;;5105397;28;20533;-41
2022/11/20 05:46:07;;;;;;;22.67;12.60;;;0.00;99.90;;;;;;5110586;28;20027;-39
2022/11/20 05:48:34;;;;;;;21.75;11.70;;;0.00;99.90;;;;;;5110078;28;20137;-39
2022/11/20 05:51:01;;;;;;;18.77;11.07;;;0.10;99.90;;;;;;5110079;28;20094;-39
2022/11/20 05:53:27;;;;;;;23.42;12.75;;;0.10;99.90;;;;;;5110681;28;20015;-39
2022/11/20 05:56:13;;;;;;;20.55;12.23;;;0.00;99.90;;;;;;5109095;28;20145;-39
2022/11/20 05:58:39;;;;;;;24.05;13.15;;;0.00;99.90;;;;;;5111381;28;20031;-39
2022/11/20 06:01:20;;;;;;;22.90;11.82;;;0.00;99.90;;;;;;5110939;28;20523;-38
2022/11/20 06:03:47;;;;;;;21.15;11.43;;;0.00;99.90;;;;;;5111160;28;20024;-40
2022/11/20 06:06:14;;;;;;;25.33;12.98;;;0.00;99.90;;;;;;5111276;28;20031;-39
2022/11/20 06:08:39;;;;;;;22.88;12.48;;;0.00;99.90;;;;;;5096622;28;20107;-39
2022/11/20 06:11:07;;;;;;;23.08;12.43;;;0.00;99.90;;;;;;5089877;28;20623;-40
2022/11/20 06:13:32;;;;;;;20.33;11.93;;;0.00;99.90;;;;;;5110055;28;20115;-39
2022/11/20 06:15:58;;;;;;;25.65;13.23;;;0.00;99.90;;;;;;5111192;28;20046;-38
2022/11/20 06:18:29;;;;;;;24.98;11.55;;;0.00;99.90;;;;;;5102214;28;20028;-39
2022/11/20 06:21:05;;;;;;;;;;;0.00;99.90;;;;;;5080603;28;20024;-39
2022/11/20 06:23:32;;;;;;;20.77;11.88;;;0.00;99.90;;;;;;5069096;28;19916;-39
2022/11/20 06:26:17;;;;;;;17.60;10.18;;;0.00;99.90;;;;;;5097837;28;20028;-39
2022/11/20 06:28:43;;;;;;;21.17;11.85;;;0.00;99.90;;;;;;5089208;28;20024;-39
2022/11/20 06:31:11;;;;;;;26.42;13.00;;;0.00;99.90;;;;;;5095815;28;20027;-39
2022/11/20 06:33:36;;;;;;;21.42;10.93;;;0.00;99.90;;;;;;5104810;28;20023;-39
2022/11/20 06:36:03;;;;;;;19.05;10.35;;;0.00;99.90;;;;;;5079617;28;20040;-39
2022/11/20 06:38:29;;;;;;;20.67;11.38;;;0.00;99.90;;;;;;5101759;28;20035;-38
2022/11/20 06:40:55;;;;;;;20.17;10.90;;;-0.10;99.90;;;;;;5080684;28;20091;-39
2022/11/20 06:43:20;;;;;;;21.23;12.23;;;-0.10;99.90;;;;;;5080042;28;20418;-39
2022/11/20 06:45:46;;;;;;;19.48;11.32;;;-0.10;99.90;;;;;;5087632;28;20513;-39
2022/11/20 06:48:11;;;;;;;17.48;10.98;;;-0.10;99.90;;;;;;5091358;28;20055;-39
2022/11/20 06:50:37;;;;;;;24.08;12.98;;;-0.10;99.90;;;;;;5080811;28;20047;-38
2022/11/20 06:53:03;;;;;;;21.65;11.85;;;-0.10;99.90;;;;;;5078848;28;20081;-38
2022/11/20 06:55:30;;;;;;;21.10;10.75;;;-0.10;99.90;;;;;;5077394;28;20116;-39
2022/11/20 06:57:55;;;;;;;21.95;11.13;;;-0.10;99.90;;;;;;5078568;28;20364;-39
2022/11/20 07:00:21;;;;;;;19.35;11.13;;;-0.10;99.90;;;;;;5080154;28;20075;-39
2022/11/20 07:02:46;;;;;;;19.85;10.77;;;0.00;99.90;;;;;;5078558;28;20566;-39
2022/11/20 07:05:12;;;;;;;18.00;11.10;;;0.00;99.90;;;;;;5080197;28;20024;-39
2022/11/20 07:07:37;;;;;;;21.30;11.07;;;0.00;99.90;;;;;;5079700;28;20078;-39
2022/11/20 07:10:05;;;;;;;20.75;10.73;;;0.00;99.90;;;;;;5070256;28;20045;-38
2022/11/20 07:12:30;;;;;;;18.90;11.40;;;0.00;99.90;;;;;;5070086;28;20021;-38
2022/11/20 07:14:56;;;;;;;19.45;11.18;;;0.10;99.90;;;;;;5074173;28;20555;-38
2022/11/20 07:17:21;;;;;;;19.05;11.52;;;0.10;99.90;;;;;;5088003;28;20024;-38
2022/11/20 07:19:47;;;;;;;18.05;11.15;;;0.10;99.90;;;;;;5094684;28;20024;-38
2022/11/20 07:22:13;;;;;;;19.00;11.50;;;0.10;99.90;;;;;;5093020;28;20020;-38
2022/11/20 07:24:38;;;;;;;19.30;10.88;;;0.10;99.90;;;;;;5092641;28;20059;-39
2022/11/20 07:27:04;;;;;;;17.60;11.35;;;0.10;99.90;;;;;;5091611;28;20132;-39
2022/11/20 07:29:30;;;;;;;19.05;11.05;;;0.10;99.90;;;;;;5085611;28;20078;-38
2022/11/20 07:31:56;;;;;;;19.95;12.20;;;0.10;99.90;;;;;;5092324;28;20032;-39
2022/11/20 07:34:22;;;;;;;23.25;11.55;;;0.10;99.90;;;;;;5080607;28;20085;-38
2022/11/20 07:36:47;;;;;;;23.20;10.98;;;0.00;99.90;;;;;;5092441;28;20024;-39
2022/11/20 07:39:13;;;;;;;19.20;11.73;;;0.00;99.90;;;;;;5092073;28;20074;-38
2022/11/20 07:41:39;;;;;;;20.83;11.82;;;0.10;99.90;;;;;;5089039;28;20031;-44
2022/11/20 07:44:05;;;;;;;22.02;10.80;;;0.10;99.90;;;;;;5097829;28;20130;-44
2022/11/20 07:46:31;;;;;;;16.77;10.27;;;0.10;99.90;;;;;;5083338;28;20665;-44
2022/11/20 07:48:57;;;;;;;19.23;10.95;;;0.10;99.90;;;;;;5084868;28;20021;-44
2022/11/20 07:51:22;;;;;;;18.38;10.88;;;0.10;99.90;;;;;;5087430;28;20034;-44
2022/11/20 07:53:51;;;;;;;17.95;11.10;;;0.10;99.90;;;;;;5085431;28;20028;-45
2022/11/20 07:56:16;;;;;;;23.48;13.68;;;0.10;99.90;;;;;;5088502;28;20435;-44
2022/11/20 07:58:42;;;;;;;19.63;11.48;;;0.10;99.90;;;;;;5089770;28;20130;-44
2022/11/20 08:01:08;;;;;;;22.10;11.95;;;0.10;99.90;;;;;;5092855;28;20092;-45
2022/11/20 08:03:34;;;;;;;20.15;11.15;;;0.10;99.90;;;;;;5092259;28;20110;-45
2022/11/20 08:06:01;;;;;;;21.13;11.35;;;0.10;99.90;;;;;;5093552;28;20032;-45
2022/11/20 08:08:28;;;;;;;21.50;11.57;;;0.00;99.90;;;;;;5084354;28;20047;-52
2022/11/20 08:14:11;;;;;;;21.98;12.30;;;0.10;99.90;;;;;;5082362;28;20024;-45
2022/11/20 08:16:23;;;;;;;18.60;11.98;;;0.00;99.90;;;;;;5084178;28;20035;-45
2022/11/20 08:18:49;;;;;;;23.05;12.38;;;0.00;99.90;;;;;;5085426;28;20099;-45
2022/11/20 08:21:14;;;;;;;19.65;11.57;;;0.00;99.90;;;;;;5087581;28;20088;-45
2022/11/20 08:23:40;;;;;;;22.08;11.25;;;0.10;99.90;;;;;;5093016;28;20111;-44
2022/11/20 08:26:06;;;;;;;17.73;10.40;;;0.10;99.90;;;;;;5093277;28;20028;-44
2022/11/20 08:28:31;;;;;;;19.67;11.23;;;0.20;99.90;;;;;;5093155;28;20153;-44
2022/11/20 08:31:01;;;;;;;15.85;10.18;;;0.30;99.90;;;;;;5091537;28;20120;-44
2022/11/20 08:33:27;;;;;;;17.15;10.77;;;0.30;99.90;;;;;;5103356;28;20104;-46
2022/11/20 08:35:52;;;;;;;18.58;11.65;;;0.30;99.90;;;;;;5111762;28;20036;-45
2022/11/20 08:38:18;;;;;;;17.83;10.23;;;0.30;99.90;;;;;;5088045;28;20016;-46
2022/11/20 08:41:23;;;;;;;18.65;10.27;;;0.40;99.90;;;;;;5106955;28;20027;-45
2022/11/20 08:43:32;;;;;;;18.08;10.35;;;0.50;99.90;;;;;;5102451;28;20016;-45
2022/11/20 08:45:57;;;;;;;17.27;10.07;;;0.60;99.90;;;;;;5097226;28;20651;-45
2022/11/20 08:48:23;;;;;;;16.98;9.60;;;0.70;99.90;;;;;;5091050;28;20017;-46
2022/11/20 08:50:48;;;;;;;17.90;10.93;;;0.70;99.90;;;;;;5090487;28;20028;-45
2022/11/20 08:53:14;;;;;;;16.38;10.68;;;0.70;99.90;;;;;;5091057;28;20666;-45
2022/11/20 08:55:39;;;;;;;15.93;10.00;;;0.60;99.90;;;;;;5091047;28;20073;-45
2022/11/20 08:58:06;;;;;;;18.00;9.85;;;0.70;99.90;;;;;;5091184;28;20025;-45
2022/11/20 09:00:32;;;;;;;13.63;9.48;;;0.80;99.90;;;;;;5090382;28;20024;-45
2022/11/20 09:02:58;;;;;;;15.05;9.55;;;0.70;99.90;;;;;;5090810;28;20477;-45
2022/11/20 09:05:24;;;;;;;15.70;9.93;;;0.80;99.90;;;;;;5091048;28;20020;-46
2022/11/20 09:07:49;;;;;;;18.20;9.85;;;0.60;99.90;;;;;;5090960;28;20036;-45
2022/11/20 09:10:15;;;;;;;16.98;9.77;;;0.70;99.90;;;;;;5082527;28;20024;-45
2022/11/20 09:12:40;;;;;;;18.98;10.65;;;0.70;99.90;;;;;;5095900;28;20099;-45
2022/11/20 09:15:06;;;;;;;15.80;9.55;;;0.80;99.90;;;;;;5091653;28;20020;-45
2022/11/20 09:17:32;;;;;;;18.25;9.02;;;0.80;99.90;;;;;;5088921;28;20027;-45
2022/11/20 09:19:57;;;;;;;13.70;8.43;;;0.90;99.90;;;;;;5098074;28;20016;-45
2022/11/20 09:22:23;;;;;;;18.55;10.25;;;1.00;99.90;;;;;;5112088;28;20019;-45
2022/11/20 09:24:48;;;;;;;18.35;9.45;;;1.10;99.90;;;;;;5110448;28;20020;-45
2022/11/20 09:27:14;;;;;;;18.55;10.00;;;1.20;99.90;;;;;;5096334;28;20094;-45
2022/11/20 09:29:39;;;;;;;15.57;9.73;;;1.10;99.90;;;;;;5094586;28;20028;-45
2022/11/20 09:32:05;;;;;;;17.90;10.15;;;1.00;99.90;;;;;;5091669;28;20459;-45
2022/11/20 09:34:31;;;;;;;15.50;9.73;;;1.20;99.90;;;;;;5090277;28;20017;-45
2022/11/20 09:36:56;;;;;;;18.48;11.10;;;1.50;99.90;;;;;;5091614;28;20042;-45
2022/11/20 09:39:25;;;;;;;15.20;9.45;;;1.70;99.90;;;;;;5087217;28;20025;-45
2022/11/20 09:42:12;;;;;;;18.10;9.85;;;2.00;99.90;;;;;;5096367;28;20030;-45
2022/11/20 09:44:50;;;;;;;18.92;10.60;;;2.00;99.90;;;;;;5099092;28;20074;-45
2022/11/20 09:47:37;;;;;;;17.58;10.43;;;2.10;99.90;;;;;;5078667;28;20335;-45
2022/11/20 09:50:15;;;;;;;13.75;9.10;;;2.10;99.90;;;;;;5111408;28;20028;-45
2022/11/20 09:52:56;;;;;;;23.83;10.25;;;2.00;99.90;;;;;;5111828;28;20027;-45
2022/11/20 09:55:22;;;;;;;16.70;9.38;;;2.10;99.90;;;;;;5105464;28;21658;-46
2022/11/20 09:57:49;;;;;;;13.13;9.70;;;2.00;99.90;;;;;;5095511;28;20024;-45
2022/11/20 10:00:15;;;;;;;16.38;9.13;;;1.90;99.90;;;;;;5090939;28;20043;-45
2022/11/20 10:02:47;;;;;;;17.08;9.88;;;2.00;99.90;;;;;;5091162;28;20025;-45
2022/11/20 10:05:31;;;;;;;15.18;9.52;;;2.10;99.90;;;;;;5091035;28;20016;-45
2022/11/20 10:08:14;;;;;;;16.08;9.73;;;2.10;99.90;;;;;;5090860;28;20039;-45
2022/11/20 10:11:06;;;;;;;16.67;10.63;;;2.10;99.90;;;;;;5090445;28;20042;-45
2022/11/20 10:13:40;;;;;;;20.25;9.93;;;2.20;99.90;;;;;;5059607;28;20428;-45
2022/11/20 10:16:17;;;;;;;14.18;9.25;;;2.30;99.90;;;;;;5090999;28;20028;-45
2022/11/20 10:18:51;;;;;;;19.25;9.85;;;2.30;99.90;;;;;;5094646;28;20028;-44
2022/11/20 10:21:42;;;;;;;14.80;9.05;;;2.30;99.90;;;;;;5080737;28;20709;-44
2022/11/20 10:24:27;;;;;;;16.13;9.10;;;2.40;99.90;;;;;;5090788;28;20722;-44
2022/11/20 10:26:52;;;;;;;16.52;9.68;;;2.30;99.90;;;;;;5102478;28;20356;-45
2022/11/20 10:29:26;;;;;;;15.82;9.80;;;2.30;99.90;;;;;;5110674;28;20024;-44
2022/11/20 10:32:00;;;;;;;16.30;9.88;;;2.30;99.90;;;;;;5111178;28;20447;-45
2022/11/20 10:34:53;;;;;;;17.33;9.75;;;2.10;99.90;;;;;;5110770;28;20043;-45
2022/11/20 10:37:26;;;;;;;14.95;9.57;;;2.10;99.90;;;;;;5109333;28;20106;-45
2022/11/20 10:39:55;;;;;;;13.77;8.98;;;2.10;99.90;;;;;;5110031;28;20019;-44
2022/11/20 10:42:51;;;;;;;14.95;10.73;;;2.20;99.90;;;;;;5110814;28;20478;-45
2022/11/20 10:45:26;;;;;;;12.55;9.02;;;2.20;99.90;;;;;;5109078;28;20039;-45
2022/11/20 10:48:14;;;;;;;15.48;9.45;;;2.10;99.90;;;;;;5110670;28;20152;-45
2022/11/20 10:50:56;;;;;;;16.08;10.02;;;1.80;99.90;;;;;;5110174;28;20019;-45
2022/11/20 10:53:39;;;;;;;15.98;9.98;;;1.90;99.90;;;;;;5110671;28;20027;-45
2022/11/20 10:56:20;;;;;;;15.95;9.75;;;2.00;99.90;;;;;;5099797;28;20024;-45
2022/11/20 10:58:51;;;;;;;15.75;10.02;;;2.60;99.90;;;;;;5110556;28;20030;-45
2022/11/20 11:01:18;;;;;;;18.77;10.77;;;3.00;99.90;;;;;;5096934;28;20023;-45
2022/11/20 11:03:45;;;;;;;14.65;10.05;;;3.20;99.90;;;;;;5106209;28;20069;-44
2022/11/20 11:06:37;;;;;;;15.40;9.60;;;3.30;99.90;;;;;;5109960;28;20056;-45
2022/11/20 11:09:16;;;;;;;14.27;9.82;;;3.30;99.90;;;;;;5110398;28;20028;-44
2022/11/20 11:11:41;;;;;;;15.65;9.52;;;3.00;99.90;;;;;;5110488;28;20366;-44
2022/11/20 11:14:13;;;;;;;17.02;9.02;;;3.00;99.90;;;;;;5110204;28;20030;-51
2022/11/20 11:16:53;;;;;;;16.75;10.10;;;3.00;99.90;;;;;;5110264;28;20051;-45
2022/11/20 11:19:19;;;;;;;13.73;9.15;;;3.00;99.90;;;;;;5103367;28;20024;-45
2022/11/20 11:21:54;;;;;;;16.35;10.00;;;3.10;99.90;;;;;;5088560;28;20028;-45
2022/11/20 11:24:28;;;;;;;15.13;9.82;;;3.10;99.90;;;;;;5076053;28;20024;-45
2022/11/20 11:27:06;;;;;;;18.08;10.73;;;3.00;99.90;;;;;;5095132;28;20024;-45
2022/11/20 11:29:33;;;;;;;13.70;8.95;;;3.00;99.90;;;;;;5087771;28;20016;-45
2022/11/20 11:32:08;;;;;;;15.65;9.77;;;3.00;99.90;;;;;;5099217;28;20089;-45
2022/11/20 11:34:34;;;;;;;18.13;9.65;;;3.10;99.90;;;;;;5105227;28;20065;-46
2022/11/20 11:37:03;;;;;;;18.02;9.13;;;3.10;99.90;;;;;;5091724;28;20035;-45
2022/11/20 11:39:30;;;;;;;17.45;10.52;;;3.10;99.90;;;;;;5091050;28;20077;-46
2022/11/20 11:41:56;;;;;;;15.68;9.63;;;3.20;99.90;;;;;;5089987;28;20031;-45
2022/11/20 11:47:24;;;;;;;14.23;9.07;;;3.40;99.90;;;;;;5111843;28;20038;-45
2022/11/20 11:50:21;;;;;;;15.13;9.30;;;3.40;99.90;;;;;;5103572;28;20542;-46
2022/11/20 11:52:55;;;;;;;14.98;9.15;;;3.30;99.90;;;;;;5093030;28;20047;-45
2022/11/20 11:55:33;;;;;;;14.48;9.32;;;3.10;99.90;;;;;;5093824;28;20104;-47
2022/11/20 11:58:24;;;;;;;13.23;8.85;;;3.10;99.90;;;;;;5093623;28;20445;-46
2022/11/20 12:00:56;;;;;;;16.85;9.27;;;3.10;99.90;;;;;;5093159;28;20016;-45
2022/11/20 12:03:34;;;;;;;14.77;9.10;;;3.10;99.90;;;;;;5093178;28;20039;-45
2022/11/20 12:06:11;;;;;;;14.60;8.95;;;2.90;99.90;;;;;;5093237;28;20035;-48
2022/11/20 12:09:04;;;;;;;14.80;8.90;;;2.90;99.90;;;;;;5093166;28;20020;-48
2022/11/20 12:11:49;;;;;;;14.20;9.27;;;2.80;99.90;;;;;;5093030;28;20023;-47
2022/11/20 12:14:33;;;;;;;16.52;9.75;;;2.60;99.90;;;;;;5092962;28;20067;-46
2022/11/20 12:17:01;;;;;;;15.75;9.90;;;2.50;99.90;;;;;;5093979;28;20081;-48
2022/11/20 12:19:33;;;;;;;15.68;9.63;;;2.50;99.90;;;;;;5094892;28;20023;-46
2022/11/20 12:22:09;;;;;;;13.32;8.43;;;2.50;99.90;;;;;;5104684;28;20020;-46
2022/11/20 12:24:38;;;;;;;16.27;9.57;;;2.50;99.90;;;;;;5113368;28;20015;-46
2022/11/20 12:27:21;;;;;;;13.50;9.70;;;2.40;99.90;;;;;;5113071;28;20548;-46
2022/11/20 12:30:07;;;;;;;16.38;9.65;;;2.20;99.90;;;;;;5112994;28;20475;-45
2022/11/20 12:33:03;;;;;;;15.30;9.43;;;2.10;99.90;;;;;;5111841;28;20038;-46
2022/11/20 12:35:47;;;;;;;18.20;10.40;;;2.10;99.90;;;;;;5112719;28;20027;-46
2022/11/20 12:38:21;;;;;;;17.15;10.02;;;2.00;99.90;;;;;;5112841;28;20027;-45
2022/11/20 12:41:01;;;;;;;14.25;9.52;;;1.90;99.90;;;;;;5111133;28;20016;-46
2022/11/20 12:46:28;;;;;;;16.58;10.50;;;1.70;99.90;;;;;;5112590;28;20544;-45
2022/11/20 12:49:21;;;;;;;17.08;10.88;;;1.60;99.90;;;;;;5096343;28;20555;-46
2022/11/20 12:52:16;;;;;;;18.75;10.82;;;1.40;99.90;;;;;;5104122;28;20436;-45
2022/11/20 12:54:58;;;;;;;19.52;11.02;;;1.40;99.90;;;;;;5112848;28;20394;-45
2022/11/20 12:57:36;;;;;;;19.63;12.50;;;1.40;99.90;;;;;;5111828;28;20085;-45
2022/11/20 13:00:11;;;;;;;19.52;11.90;;;1.30;99.90;;;;;;5111141;28;20496;-45
2022/11/20 13:03:14;;;;;;;20.88;11.20;;;1.40;99.90;;;;;;5111137;28;20502;-46
2022/11/20 13:06:09;;;;;;;20.60;12.02;;;1.40;99.90;;;;;;5112216;28;20023;-45